createdAt,value
2022-12-31T00:00:26.983Z,1.40
2022-12-31T00:02:29.151Z,1.30
2022-12-31T00:04:31.104Z,1.40
2022-12-31T00:06:35.402Z,1.40
2022-12-31T00:08:37.376Z,1.40
2022-12-31T00:10:41.823Z,1.40
2022-12-31T00:12:43.976Z,1.30
2022-12-31T00:14:45.779Z,1.30
2022-12-31T00:16:47.751Z,1.40
2022-12-31T00:18:51.778Z,1.40
2022-12-31T00:20:53.619Z,1.60
2022-12-31T00:22:55.642Z,1.50
2022-12-31T00:24:57.448Z,1.50
2022-12-31T00:26:59.309Z,1.40
2022-12-31T00:29:02.102Z,1.40
2022-12-31T00:31:06.803Z,1.30
2022-12-31T00:33:08.736Z,1.50
2022-12-31T00:35:10.669Z,1.50
2022-12-31T00:37:12.420Z,1.60
2022-12-31T00:39:14.434Z,1.40
2022-12-31T00:41:17.419Z,1.40
2022-12-31T00:43:19.286Z,1.40
2022-12-31T00:45:21.137Z,1.40
2022-12-31T00:47:24.660Z,1.50
2022-12-31T00:49:26.569Z,1.60
2022-12-31T00:51:28.699Z,1.60
2022-12-31T00:53:31.816Z,1.50
2022-12-31T00:55:34.288Z,1.60
2022-12-31T00:57:36.407Z,1.60
2022-12-31T00:59:38.175Z,1.60
2022-12-31T01:01:42.180Z,1.60
2022-12-31T01:03:44.612Z,1.50
2022-12-31T01:05:46.615Z,1.40
2022-12-31T01:07:48.368Z,1.20
2022-12-31T01:09:50.434Z,1.20
2022-12-31T01:11:52.232Z,1.20
2022-12-31T01:14:23.454Z,1.20
2022-12-31T01:16:31.890Z,1.10
2022-12-31T01:18:33.841Z,1.10
2022-12-31T01:20:40.574Z,1.00
2022-12-31T01:22:42.426Z,1.00
2022-12-31T01:24:44.350Z,1.00
2022-12-31T01:26:47.100Z,1.10
2022-12-31T01:28:49.032Z,1.30
2022-12-31T01:30:51.008Z,1.30
2022-12-31T01:32:52.757Z,1.30
2022-12-31T01:34:54.604Z,1.50
2022-12-31T01:36:56.626Z,1.40
2022-12-31T01:38:59.455Z,1.40
2022-12-31T01:41:01.817Z,1.40
2022-12-31T01:43:16.299Z,1.40
2022-12-31T01:45:18.163Z,1.40
2022-12-31T01:47:38.044Z,1.40
2022-12-31T01:49:50.703Z,1.40
2022-12-31T01:52:02.016Z,1.50
2022-12-31T01:54:09.386Z,1.50
2022-12-31T01:56:11.487Z,1.40
2022-12-31T01:58:24.566Z,1.50
2022-12-31T02:00:26.728Z,1.40
2022-12-31T02:02:29.021Z,1.50
2022-12-31T02:04:31.060Z,1.50
2022-12-31T02:06:37.111Z,1.60
2022-12-31T02:08:42.193Z,1.60
2022-12-31T02:10:44.368Z,1.70
2022-12-31T02:12:48.040Z,1.60
2022-12-31T02:14:52.600Z,1.60
2022-12-31T02:17:24.989Z,1.70
2022-12-31T02:19:45.307Z,1.70
2022-12-31T02:22:14.624Z,1.70
2022-12-31T02:24:22.497Z,1.60
2022-12-31T02:26:36.407Z,1.50
2022-12-31T02:28:53.320Z,1.40
2022-12-31T02:31:01.957Z,1.20
2022-12-31T02:33:08.109Z,1.30
2022-12-31T02:35:15.200Z,1.20
2022-12-31T02:37:21.694Z,1.10
2022-12-31T02:39:23.961Z,1.00
2022-12-31T02:41:44.535Z,1.00
2022-12-31T02:43:47.467Z,1.00
2022-12-31T02:46:04.690Z,1.00
2022-12-31T02:48:21.176Z,0.90
2022-12-31T02:50:32.168Z,0.90
2022-12-31T02:52:36.993Z,0.90
2022-12-31T02:54:51.029Z,1.00
2022-12-31T02:57:16.449Z,0.90
2022-12-31T02:59:43.599Z,0.70
2022-12-31T03:02:09.783Z,0.70
2022-12-31T03:04:31.919Z,0.50
2022-12-31T03:06:34.403Z,0.40
2022-12-31T03:08:57.599Z,0.40
2022-12-31T03:10:59.681Z,0.30
2022-12-31T03:13:02.788Z,0.30
2022-12-31T03:15:06.804Z,0.20
2022-12-31T03:17:08.799Z,0.20
2022-12-31T03:19:29.300Z,0.20
2022-12-31T03:21:49.663Z,0.30
2022-12-31T03:24:10.065Z,0.30
2022-12-31T03:26:12.643Z,0.30
2022-12-31T03:28:18.147Z,0.40
2022-12-31T03:30:21.478Z,0.40
2022-12-31T03:32:24.545Z,0.40
2022-12-31T03:34:26.421Z,0.20
2022-12-31T03:36:28.284Z,0.10
2022-12-31T03:38:30.200Z,0.00
2022-12-31T03:40:34.958Z,-0.10
2022-12-31T03:42:37.247Z,0.10
2022-12-31T03:44:39.125Z,0.20
2022-12-31T03:46:41.032Z,0.40
2022-12-31T03:48:42.891Z,0.40
2022-12-31T03:50:44.801Z,0.50
2022-12-31T03:52:46.982Z,0.40
2022-12-31T03:54:48.857Z,0.40
2022-12-31T03:56:53.030Z,0.40
2022-12-31T03:58:58.654Z,0.40
2022-12-31T04:01:00.669Z,0.30
2022-12-31T04:03:02.605Z,0.20
2022-12-31T04:05:04.918Z,0.10
2022-12-31T04:07:07.032Z,0.10
2022-12-31T04:09:08.979Z,0.20
2022-12-31T04:11:13.620Z,0.20
2022-12-31T04:13:17.856Z,0.10
2022-12-31T04:15:21.305Z,0.00
2022-12-31T04:17:23.183Z,0.00
2022-12-31T04:19:25.147Z,0.10
2022-12-31T04:21:31.450Z,0.10
2022-12-31T04:23:36.619Z,0.20
2022-12-31T04:25:38.522Z,0.20
2022-12-31T04:27:41.509Z,0.30
2022-12-31T04:29:43.438Z,0.30
2022-12-31T04:31:45.365Z,0.50
2022-12-31T04:33:47.140Z,0.50
2022-12-31T04:35:49.128Z,0.50
2022-12-31T04:37:50.886Z,0.50
2022-12-31T04:39:52.732Z,0.60
2022-12-31T04:41:54.854Z,0.50
2022-12-31T04:43:58.596Z,0.40
2022-12-31T04:46:00.518Z,0.20
2022-12-31T04:48:02.295Z,0.20
2022-12-31T04:50:05.184Z,0.20
2022-12-31T04:52:07.053Z,0.20
2022-12-31T04:54:09.024Z,0.20
2022-12-31T04:56:11.203Z,0.30
2022-12-31T04:58:13.099Z,0.20
2022-12-31T05:00:15.280Z,0.10
2022-12-31T05:02:17.377Z,0.10
2022-12-31T05:04:19.339Z,0.00
2022-12-31T05:06:23.010Z,0.00
2022-12-31T05:08:24.848Z,-0.10
2022-12-31T05:10:26.904Z,-0.10
2022-12-31T05:12:28.895Z,-0.20
2022-12-31T05:14:30.810Z,-0.30
2022-12-31T05:16:32.755Z,-0.30
2022-12-31T05:18:35.154Z,-0.30
2022-12-31T05:20:36.958Z,-0.30
2022-12-31T05:22:38.820Z,-0.30
2022-12-31T05:24:40.707Z,-0.30
2022-12-31T05:26:42.570Z,-0.30
2022-12-31T05:28:44.485Z,-0.30
2022-12-31T05:30:50.123Z,-0.30
2022-12-31T05:32:52.193Z,-0.30
2022-12-31T05:34:53.946Z,-0.30
2022-12-31T05:36:55.845Z,-0.30
2022-12-31T05:38:57.695Z,-0.20
2022-12-31T05:41:05.240Z,-0.20
2022-12-31T05:43:07.229Z,-0.30
2022-12-31T05:45:09.518Z,-0.40
2022-12-31T05:47:11.523Z,-0.40
2022-12-31T05:49:13.307Z,-0.40
2022-12-31T05:51:15.227Z,-0.40
2022-12-31T05:53:17.273Z,-0.50
2022-12-31T05:55:19.359Z,-0.50
2022-12-31T05:57:21.266Z,-0.50
2022-12-31T05:59:23.263Z,-0.40
2022-12-31T06:01:25.036Z,-0.40
2022-12-31T06:03:26.986Z,-0.30
2022-12-31T06:05:28.779Z,-0.20
2022-12-31T06:07:30.723Z,-0.10
2022-12-31T06:09:32.548Z,-0.20
2022-12-31T06:11:34.519Z,-0.20
2022-12-31T06:13:36.356Z,-0.20
2022-12-31T06:15:40.227Z,-0.10
2022-12-31T06:17:42.138Z,0.00
2022-12-31T06:19:44.033Z,0.10
2022-12-31T06:21:45.947Z,0.10
2022-12-31T06:23:48.251Z,0.10
2022-12-31T06:25:50.549Z,0.10
2022-12-31T06:27:52.384Z,0.20
2022-12-31T06:29:54.260Z,0.20
2022-12-31T06:31:56.279Z,0.30
2022-12-31T06:33:58.022Z,0.20
2022-12-31T06:36:02.901Z,0.20
2022-12-31T06:38:05.198Z,0.20
2022-12-31T06:40:07.764Z,0.20
2022-12-31T06:42:09.629Z,0.10
2022-12-31T06:44:11.667Z,0.30
2022-12-31T06:46:14.706Z,0.30
2022-12-31T06:48:16.701Z,0.30
2022-12-31T06:50:18.491Z,0.40
2022-12-31T06:52:20.655Z,0.40
2022-12-31T06:54:22.526Z,0.40
2022-12-31T06:56:34.003Z,0.50
2022-12-31T06:58:37.564Z,0.40
2022-12-31T07:00:44.759Z,0.50
2022-12-31T07:03:19.431Z,0.40
2022-12-31T07:05:42.074Z,0.40
2022-12-31T07:07:59.723Z,0.50
2022-12-31T07:10:29.472Z,0.60
2022-12-31T07:12:39.858Z,0.70
2022-12-31T07:15:25.112Z,0.80
2022-12-31T07:18:06.620Z,0.80
2022-12-31T07:20:17.743Z,1.00
2022-12-31T07:22:20.669Z,1.10
2022-12-31T07:24:22.883Z,1.20
2022-12-31T07:26:34.957Z,1.30
2022-12-31T07:28:58.024Z,1.30
2022-12-31T07:31:03.309Z,1.50
2022-12-31T07:33:24.171Z,1.60
2022-12-31T07:35:34.697Z,1.50
2022-12-31T07:37:45.975Z,1.50
2022-12-31T07:40:01.450Z,1.60
2022-12-31T07:42:28.620Z,1.60
2022-12-31T07:44:48.316Z,1.70
2022-12-31T07:46:58.246Z,1.80
2022-12-31T07:49:00.695Z,1.90
2022-12-31T07:51:02.959Z,2.00
2022-12-31T07:53:05.428Z,2.10
2022-12-31T07:55:07.711Z,2.20
2022-12-31T07:57:12.519Z,2.30
2022-12-31T07:59:33.732Z,2.30
2022-12-31T08:01:41.709Z,2.40
2022-12-31T08:04:20.832Z,2.40
2022-12-31T08:06:53.545Z,2.30
2022-12-31T08:09:01.327Z,2.40
2022-12-31T08:11:32.883Z,2.40
2022-12-31T08:13:34.944Z,2.50
2022-12-31T08:15:40.638Z,2.60
2022-12-31T08:17:43.249Z,2.70
2022-12-31T08:19:46.163Z,2.80
2022-12-31T08:21:59.985Z,2.90
2022-12-31T08:24:14.547Z,2.90
2022-12-31T08:26:32.316Z,2.80
2022-12-31T08:29:12.459Z,2.90
2022-12-31T08:31:21.820Z,3.00
2022-12-31T08:33:42.513Z,3.20
2022-12-31T08:36:24.126Z,3.20
2022-12-31T08:38:50.929Z,3.30
2022-12-31T08:41:04.527Z,3.40
2022-12-31T08:43:41.316Z,3.50
2022-12-31T08:45:53.715Z,3.60
2022-12-31T08:48:01.471Z,3.70
2022-12-31T08:50:03.921Z,3.90
2022-12-31T08:52:21.910Z,4.10
2022-12-31T08:54:24.038Z,4.20
2022-12-31T08:56:33.609Z,4.20
2022-12-31T08:58:40.925Z,4.30
2022-12-31T09:00:43.024Z,4.30
2022-12-31T09:02:53.512Z,4.40
2022-12-31T09:05:13.981Z,4.40
2022-12-31T09:07:22.292Z,4.40
2022-12-31T09:09:56.099Z,4.50
2022-12-31T09:12:06.133Z,4.70
2022-12-31T09:14:29.586Z,4.70
2022-12-31T09:16:46.590Z,4.70
2022-12-31T09:18:48.560Z,4.70
2022-12-31T09:20:50.784Z,4.70
2022-12-31T09:22:53.566Z,4.70
2022-12-31T09:24:55.704Z,4.80
2022-12-31T09:27:03.583Z,4.90
2022-12-31T09:29:37.434Z,5.00
2022-12-31T09:32:06.848Z,5.10
2022-12-31T09:34:23.726Z,5.20
2022-12-31T09:36:34.424Z,5.30
2022-12-31T09:38:39.136Z,5.30
2022-12-31T09:41:02.120Z,5.30
2022-12-31T09:43:37.800Z,5.40
2022-12-31T09:46:07.083Z,5.40
2022-12-31T09:48:08.927Z,5.50
2022-12-31T09:50:35.668Z,5.70
2022-12-31T09:52:46.636Z,5.60
2022-12-31T09:55:23.811Z,5.70
2022-12-31T09:57:52.451Z,5.70
2022-12-31T10:00:31.231Z,5.70
2022-12-31T10:02:55.158Z,5.80
2022-12-31T10:05:40.608Z,5.90
2022-12-31T10:08:10.645Z,6.10
2022-12-31T10:10:22.549Z,6.30
2022-12-31T10:12:44.752Z,6.20
2022-12-31T10:15:23.381Z,6.20
2022-12-31T10:17:36.584Z,6.20
2022-12-31T10:19:46.385Z,6.20
2022-12-31T10:22:24.944Z,6.20
2022-12-31T10:24:59.941Z,6.20
2022-12-31T10:27:39.925Z,6.20
2022-12-31T10:29:56.838Z,6.20
2022-12-31T10:32:34.715Z,6.30
2022-12-31T10:34:52.033Z,6.30
2022-12-31T10:37:06.410Z,6.30
2022-12-31T10:39:29.816Z,6.30
2022-12-31T10:41:50.115Z,6.40
2022-12-31T10:44:25.256Z,6.40
2022-12-31T10:46:45.046Z,6.50
2022-12-31T10:49:07.514Z,6.60
2022-12-31T10:51:34.475Z,6.60
2022-12-31T10:53:53.677Z,6.60
2022-12-31T10:56:29.398Z,6.60
2022-12-31T10:58:40.109Z,6.70
2022-12-31T11:01:01.595Z,6.70
2022-12-31T11:03:29.775Z,6.90
2022-12-31T11:05:53.423Z,7.00
2022-12-31T11:08:23.532Z,7.00
2022-12-31T11:10:48.278Z,6.90
2022-12-31T11:13:20.744Z,7.00
2022-12-31T11:15:22.609Z,7.00
2022-12-31T11:17:47.474Z,7.10
2022-12-31T11:19:54.565Z,7.10
2022-12-31T11:22:43.621Z,7.20
2022-12-31T11:24:51.579Z,7.40
2022-12-31T11:27:21.674Z,7.30
2022-12-31T11:30:05.662Z,7.40
2022-12-31T11:32:26.951Z,7.60
2022-12-31T11:34:38.036Z,7.60
2022-12-31T11:36:58.615Z,7.70
2022-12-31T11:39:35.590Z,7.70
2022-12-31T11:41:56.543Z,7.70
2022-12-31T11:44:24.025Z,7.80
2022-12-31T11:47:14.875Z,7.80
2022-12-31T11:49:51.733Z,7.90
2022-12-31T11:55:12.525Z,8.10
2022-12-31T11:57:19.883Z,8.10
2022-12-31T11:59:22.396Z,8.10
2022-12-31T12:01:45.953Z,8.20
2022-12-31T12:03:48.548Z,8.30
2022-12-31T12:05:51.155Z,8.20
2022-12-31T12:07:54.177Z,8.20
2022-12-31T12:12:14.325Z,8.30
2022-12-31T12:14:41.667Z,8.20
2022-12-31T12:16:43.751Z,8.30
2022-12-31T12:18:48.553Z,8.40
2022-12-31T12:20:51.260Z,8.40
2022-12-31T12:22:56.384Z,8.30
2022-12-31T12:25:06.485Z,8.30
2022-12-31T12:27:24.767Z,8.30
2022-12-31T12:29:36.011Z,8.30
2022-12-31T12:31:38.909Z,8.20
2022-12-31T12:33:45.000Z,8.20
2022-12-31T12:35:47.607Z,8.30
2022-12-31T12:38:02.500Z,8.30
2022-12-31T12:40:20.326Z,8.30
2022-12-31T12:42:22.159Z,8.30
2022-12-31T12:44:24.024Z,8.40
2022-12-31T12:46:47.751Z,8.30
2022-12-31T12:48:56.293Z,8.30
2022-12-31T14:20:35.711Z,6.20
2022-12-31T14:22:47.623Z,6.30
2022-12-31T14:24:52.025Z,6.30
2022-12-31T14:26:59.980Z,6.00
2022-12-31T14:29:11.043Z,5.70
2022-12-31T14:31:28.059Z,5.80
2022-12-31T14:33:59.398Z,5.70
2022-12-31T14:36:32.556Z,5.90
2022-12-31T14:38:40.432Z,5.60
2022-12-31T14:41:03.049Z,5.50
2022-12-31T14:43:23.714Z,5.50
2022-12-31T14:45:28.264Z,5.40
2022-12-31T14:47:42.372Z,5.30
2022-12-31T14:50:05.228Z,5.40
2022-12-31T14:52:22.204Z,5.60
2022-12-31T14:54:36.801Z,5.40
2022-12-31T14:56:43.820Z,5.40
2022-12-31T14:58:59.618Z,5.50
2022-12-31T15:01:09.080Z,5.40
2022-12-31T15:03:13.995Z,5.30
2022-12-31T15:05:21.904Z,5.30
2022-12-31T15:07:30.392Z,5.30
2022-12-31T15:09:52.058Z,5.30
2022-12-31T15:11:56.651Z,5.30
2022-12-31T15:14:23.105Z,5.30
2022-12-31T15:16:33.957Z,5.40
2022-12-31T15:18:35.820Z,5.30
2022-12-31T15:20:40.569Z,5.20
2022-12-31T15:22:50.622Z,5.20
2022-12-31T15:24:52.664Z,5.10
2022-12-31T15:26:56.390Z,5.00
2022-12-31T15:29:02.672Z,5.10
2022-12-31T15:31:17.415Z,5.30
2022-12-31T15:33:36.317Z,5.10
2022-12-31T15:35:56.483Z,5.10
2022-12-31T15:38:02.588Z,5.00
2022-12-31T15:40:16.649Z,4.90
2022-12-31T15:42:42.397Z,4.90
2022-12-31T15:45:22.547Z,4.90
2022-12-31T15:47:28.940Z,4.80
2022-12-31T15:49:38.635Z,4.80
2022-12-31T15:52:04.257Z,4.80
2022-12-31T15:54:13.455Z,4.70
2022-12-31T15:56:20.720Z,4.70
2022-12-31T15:58:31.500Z,4.60
2022-12-31T16:01:00.698Z,4.70
2022-12-31T16:03:02.834Z,4.70
2022-12-31T16:05:05.347Z,4.60
2022-12-31T16:07:07.268Z,4.60
2022-12-31T16:09:18.709Z,4.70
2022-12-31T16:11:20.696Z,4.70
2022-12-31T16:13:25.266Z,4.60
2022-12-31T16:15:30.369Z,4.70
2022-12-31T16:17:36.354Z,4.60
2022-12-31T16:19:46.247Z,4.60
2022-12-31T16:21:54.435Z,4.60
2022-12-31T16:23:59.235Z,4.50
2022-12-31T16:26:02.611Z,4.50
2022-12-31T16:28:04.556Z,4.60
2022-12-31T16:30:27.273Z,4.50
2022-12-31T16:32:37.075Z,4.50
2022-12-31T16:34:38.951Z,4.40
2022-12-31T16:36:41.296Z,4.40
2022-12-31T16:38:43.144Z,4.20
2022-12-31T16:41:24.450Z,4.10
2022-12-31T16:43:28.725Z,4.10
2022-12-31T16:45:38.623Z,3.90
2022-12-31T16:47:43.241Z,3.80
2022-12-31T16:49:47.911Z,3.90
2022-12-31T16:51:50.120Z,3.90
2022-12-31T16:53:52.371Z,3.90
2022-12-31T16:56:23.369Z,3.80
2022-12-31T16:58:32.633Z,3.70
2022-12-31T17:00:36.402Z,3.90
2022-12-31T17:02:45.432Z,4.00
2022-12-31T17:04:55.283Z,4.20
2022-12-31T17:07:29.898Z,4.00
2022-12-31T17:09:36.630Z,3.90
2022-12-31T17:11:55.301Z,3.90
2022-12-31T17:14:06.000Z,3.90
2022-12-31T17:16:07.965Z,4.00
2022-12-31T17:18:16.269Z,3.80
2022-12-31T17:20:24.494Z,3.90
2022-12-31T17:22:36.444Z,3.90
2022-12-31T17:24:40.046Z,3.70
2022-12-31T17:26:42.622Z,3.80
2022-12-31T17:28:50.730Z,3.80
2022-12-31T17:30:53.560Z,3.80
2022-12-31T17:33:22.631Z,3.90
2022-12-31T17:35:33.415Z,3.90
2022-12-31T17:37:35.404Z,3.90
2022-12-31T17:39:45.163Z,3.90
2022-12-31T17:41:49.492Z,3.80
2022-12-31T17:43:55.826Z,3.70
2022-12-31T17:45:58.988Z,3.70
2022-12-31T17:48:01.644Z,3.70
2022-12-31T17:50:20.150Z,3.60
2022-12-31T17:52:22.023Z,3.50
2022-12-31T17:54:23.954Z,3.40
2022-12-31T17:56:25.851Z,3.70
2022-12-31T17:58:29.753Z,3.60
2022-12-31T18:00:33.415Z,3.40
2022-12-31T18:02:35.361Z,3.40
2022-12-31T18:04:37.273Z,3.30
2022-12-31T18:06:39.146Z,3.40
2022-12-31T18:08:41.399Z,3.40
2022-12-31T18:10:44.799Z,3.30
2022-12-31T18:12:48.812Z,3.40
2022-12-31T18:14:50.741Z,3.50
2022-12-31T18:16:52.607Z,3.50
2022-12-31T18:18:58.518Z,3.80
2022-12-31T18:21:07.077Z,3.60
2022-12-31T18:23:17.839Z,3.50
2022-12-31T18:25:22.485Z,3.40
2022-12-31T18:27:24.437Z,3.40
2022-12-31T18:29:26.292Z,3.30
2022-12-31T18:31:30.141Z,3.40
2022-12-31T18:33:32.168Z,3.40
2022-12-31T18:36:06.999Z,3.30
2022-12-31T18:37:59.966Z,3.30
2022-12-31T18:40:01.949Z,3.30
2022-12-31T18:42:03.937Z,3.40
2022-12-31T18:44:05.899Z,3.40
2022-12-31T18:46:14.834Z,3.20
2022-12-31T18:48:18.467Z,3.30
2022-12-31T18:50:20.381Z,3.40
2022-12-31T18:52:23.459Z,3.40
2022-12-31T18:54:25.321Z,3.30
2022-12-31T18:56:27.597Z,3.30
2022-12-31T18:58:29.473Z,3.30
2022-12-31T19:00:31.380Z,3.30
2022-12-31T19:02:33.277Z,3.30
2022-12-31T19:04:35.260Z,3.10
2022-12-31T19:06:37.211Z,3.00
2022-12-31T19:08:39.135Z,2.90
2022-12-31T19:10:41.111Z,2.90
2022-12-31T19:12:43.716Z,2.90
2022-12-31T19:14:47.587Z,2.90
2022-12-31T19:16:50.935Z,2.90
2022-12-31T19:18:52.925Z,2.90
2022-12-31T19:20:54.849Z,2.90
2022-12-31T19:22:58.186Z,2.90
2022-12-31T19:28:45.787Z,3.00
2022-12-31T19:34:30.505Z,2.70
2022-12-31T19:36:32.454Z,2.60
2022-12-31T19:38:34.687Z,2.60
2022-12-31T19:40:36.584Z,2.70
2022-12-31T19:42:38.443Z,2.70
2022-12-31T19:44:40.719Z,2.90
2022-12-31T19:46:43.179Z,2.90
2022-12-31T19:48:48.066Z,2.80
2022-12-31T19:50:52.710Z,2.80
2022-12-31T19:52:57.502Z,2.80
2022-12-31T19:54:59.648Z,2.80
2022-12-31T19:57:02.656Z,2.70
2022-12-31T19:59:11.484Z,2.80
2022-12-31T20:01:22.631Z,2.80
2022-12-31T20:03:25.762Z,2.70
2022-12-31T20:05:30.263Z,2.60
2022-12-31T20:07:32.307Z,2.50
2022-12-31T20:09:36.117Z,2.50
2022-12-31T20:11:38.048Z,2.60
2022-12-31T20:13:41.006Z,2.50
2022-12-31T20:15:48.037Z,2.60
2022-12-31T20:17:50.050Z,2.70
2022-12-31T20:19:51.909Z,2.70
2022-12-31T20:21:53.837Z,2.70
2022-12-31T20:23:56.620Z,2.70
2022-12-31T20:25:59.998Z,2.80
2022-12-31T20:28:01.941Z,2.60
2022-12-31T20:30:04.260Z,2.60
2022-12-31T20:32:06.541Z,2.60
2022-12-31T20:34:10.361Z,2.60
2022-12-31T20:36:15.727Z,2.70
2022-12-31T20:38:17.654Z,2.80
2022-12-31T20:40:20.261Z,2.80
2022-12-31T20:42:22.295Z,2.80
2022-12-31T20:44:24.196Z,2.80
2022-12-31T20:46:31.401Z,2.90
2022-12-31T20:48:34.328Z,2.90
2022-12-31T20:50:36.499Z,2.90
2022-12-31T20:52:38.374Z,2.80
2022-12-31T20:54:41.382Z,3.00
2022-12-31T20:56:43.310Z,3.00
2022-12-31T20:58:45.403Z,2.80
2022-12-31T21:00:51.959Z,3.00
2022-12-31T21:03:00.709Z,2.80
2022-12-31T21:05:09.094Z,3.10
2022-12-31T21:07:11.166Z,2.90
2022-12-31T21:09:14.012Z,2.90
2022-12-31T21:11:35.355Z,2.80
2022-12-31T21:13:37.237Z,2.80
2022-12-31T21:15:39.215Z,2.60
2022-12-31T21:17:41.166Z,2.60
2022-12-31T21:19:43.092Z,2.60
2022-12-31T21:21:45.047Z,2.60
2022-12-31T21:23:47.090Z,2.50
2022-12-31T21:25:50.184Z,2.50
2022-12-31T21:27:52.053Z,2.50
2022-12-31T21:30:17.739Z,2.60
2022-12-31T21:32:15.794Z,2.90
2022-12-31T21:34:17.658Z,2.80
2022-12-31T21:36:19.743Z,2.80
2022-12-31T21:38:21.695Z,2.80
2022-12-31T21:40:23.531Z,2.70
2022-12-31T21:42:25.716Z,2.70
2022-12-31T21:44:28.553Z,2.50
2022-12-31T21:46:31.019Z,2.50
2022-12-31T21:48:33.509Z,2.60
2022-12-31T21:50:35.995Z,2.60
2022-12-31T21:52:37.832Z,2.50
2022-12-31T21:54:58.393Z,2.40
2022-12-31T21:57:00.547Z,2.40
2022-12-31T21:59:20.682Z,2.30
2022-12-31T22:01:41.086Z,2.40
2022-12-31T22:03:43.780Z,2.40
2022-12-31T22:05:50.616Z,2.30
2022-12-31T22:07:52.461Z,2.30
2022-12-31T22:09:54.433Z,2.40
2022-12-31T22:11:56.149Z,2.40
2022-12-31T22:13:59.056Z,2.50
2022-12-31T22:16:05.425Z,2.60
2022-12-31T22:18:07.761Z,2.50
2022-12-31T22:20:26.945Z,2.50
2022-12-31T22:22:29.791Z,2.60
2022-12-31T22:24:31.610Z,2.60
2022-12-31T22:26:33.537Z,2.60
2022-12-31T22:28:38.726Z,2.70
2022-12-31T22:30:41.505Z,2.70
2022-12-31T22:32:43.603Z,2.70
2022-12-31T22:34:45.472Z,2.70
2022-12-31T22:36:47.351Z,2.70
2022-12-31T22:38:50.904Z,2.60
2022-12-31T22:41:11.309Z,2.70
2022-12-31T22:43:13.171Z,2.70
2022-12-31T22:45:15.167Z,2.60
2022-12-31T22:47:16.985Z,2.70
2022-12-31T22:49:20.161Z,2.70
2022-12-31T22:51:22.183Z,2.60
2022-12-31T22:53:24.574Z,2.60
2022-12-31T22:55:26.426Z,2.50
2022-12-31T22:57:28.367Z,2.50
2022-12-31T22:59:30.387Z,2.40
2022-12-31T23:01:32.438Z,2.40
2022-12-31T23:03:35.006Z,2.70
2022-12-31T23:05:36.927Z,2.60
2022-12-31T23:07:38.904Z,2.40
2022-12-31T23:09:59.296Z,2.30
2022-12-31T23:12:02.468Z,2.30
2022-12-31T23:14:23.984Z,2.20
2022-12-31T23:16:47.000Z,2.10
2022-12-31T23:19:07.378Z,2.00
2022-12-31T23:21:28.911Z,2.00
2022-12-31T23:23:31.583Z,2.00
2022-12-31T23:25:44.844Z,1.90
2022-12-31T23:27:46.808Z,2.00
2022-12-31T23:29:49.259Z,1.80
2022-12-31T23:31:52.400Z,1.70
2022-12-31T23:33:54.949Z,1.70
2022-12-31T23:36:06.870Z,1.60
2022-12-31T23:38:08.919Z,1.60
2022-12-31T23:40:15.742Z,1.50
2022-12-31T23:42:21.013Z,1.60
2022-12-31T23:44:23.037Z,1.50
2022-12-31T23:46:25.070Z,1.60
2022-12-31T23:48:27.303Z,1.60
2022-12-31T23:50:29.312Z,1.60
2022-12-31T23:52:31.536Z,1.60
2022-12-31T23:54:35.111Z,1.70
2022-12-31T23:56:37.779Z,1.70
2022-12-31T23:58:39.715Z,1.60
